createdAt,value
2022-07-25T00:00:07.705Z,7.51
2022-07-25T00:01:14.175Z,7.75
2022-07-25T00:02:19.808Z,7.61
2022-07-25T00:03:24.316Z,8.12
2022-07-25T00:04:29.982Z,8.24
2022-07-25T00:05:37.795Z,7.86
2022-07-25T00:06:39.634Z,8.08
2022-07-25T00:07:43.088Z,8.16
2022-07-25T00:08:46.963Z,8.06
2022-07-25T00:09:54.278Z,8.48
2022-07-25T00:10:57.716Z,8.22
2022-07-25T00:12:03.505Z,8.19
2022-07-25T00:13:08.871Z,8.19
2022-07-25T00:14:12.820Z,8.79
2022-07-25T00:15:16.203Z,8.82
2022-07-25T00:16:19.652Z,8.90
2022-07-25T00:18:36.588Z,9.03
2022-07-25T00:19:39.511Z,8.73
2022-07-25T00:20:43.313Z,9.71
2022-07-25T00:21:48.956Z,9.31
2022-07-25T00:22:54.460Z,9.65
2022-07-25T00:23:59.056Z,9.82
2022-07-25T00:25:10.033Z,9.65
2022-07-25T00:26:14.246Z,9.11
2022-07-25T00:27:18.867Z,10.38
2022-07-25T00:28:23.781Z,9.80
2022-07-25T00:29:27.444Z,10.25
2022-07-25T00:30:33.039Z,10.02
2022-07-25T00:31:37.093Z,8.76
2022-07-25T00:32:40.840Z,9.84
2022-07-25T00:33:44.402Z,9.91
2022-07-25T00:34:47.847Z,10.21
2022-07-25T00:35:51.916Z,10.00
2022-07-25T00:36:58.280Z,8.95
2022-07-25T00:38:02.378Z,9.76
2022-07-25T00:39:08.557Z,9.28
2022-07-25T00:40:14.455Z,9.64
2022-07-25T00:41:18.425Z,10.31
2022-07-25T00:42:25.915Z,10.04
2022-07-25T00:43:29.642Z,9.41
2022-07-25T00:44:34.478Z,9.86
2022-07-25T00:45:40.003Z,9.46
2022-07-25T00:46:42.673Z,9.74
2022-07-25T00:47:48.838Z,9.91
2022-07-25T00:48:52.420Z,9.78
2022-07-25T00:49:56.073Z,9.89
2022-07-25T00:51:03.375Z,10.02
2022-07-25T00:52:06.590Z,9.84
2022-07-25T00:53:10.347Z,9.71
2022-07-25T00:54:14.933Z,9.91
2022-07-25T00:55:22.531Z,10.27
2022-07-25T00:56:27.130Z,9.78
2022-07-25T00:57:32.371Z,9.34
2022-07-25T00:58:37.598Z,9.64
2022-07-25T00:59:42.240Z,9.67
2022-07-25T01:00:46.889Z,9.59
2022-07-25T01:01:50.140Z,9.89
2022-07-25T01:02:54.143Z,9.24
2022-07-25T01:04:01.978Z,10.11
2022-07-25T01:05:07.014Z,9.26
2022-07-25T01:06:13.163Z,9.48
2022-07-25T01:07:20.494Z,8.61
2022-07-25T01:08:24.487Z,9.23
2022-07-25T01:09:29.616Z,8.96
2022-07-25T01:11:52.096Z,9.19
2022-07-25T01:12:56.262Z,9.59
2022-07-25T01:14:03.436Z,9.06
2022-07-25T01:15:11.996Z,8.88
2022-07-25T01:16:19.364Z,8.57
2022-07-25T01:17:22.848Z,9.43
2022-07-25T01:18:26.422Z,8.74
2022-07-25T01:19:29.964Z,8.51
2022-07-25T01:20:34.409Z,8.89
2022-07-25T01:21:40.551Z,9.06
2022-07-25T01:22:46.039Z,9.30
2022-07-25T01:23:56.102Z,8.74
2022-07-25T01:24:59.773Z,9.31
2022-07-25T01:26:04.182Z,8.75
2022-07-25T01:27:07.517Z,9.09
2022-07-25T01:28:10.951Z,8.33
2022-07-25T01:29:17.488Z,8.82
2022-07-25T01:30:22.529Z,8.45
2022-07-25T01:31:29.522Z,8.68
2022-07-25T01:32:33.120Z,8.84
2022-07-25T01:33:39.661Z,8.59
2022-07-25T01:34:43.069Z,9.12
2022-07-25T01:35:50.528Z,8.31
2022-07-25T01:36:57.589Z,9.11
2022-07-25T01:38:01.583Z,9.57
2022-07-25T01:39:04.485Z,8.38
2022-07-25T01:40:09.415Z,8.44
2022-07-25T01:41:22.693Z,8.96
2022-07-25T01:42:23.107Z,8.89
2022-07-25T01:43:26.994Z,8.65
2022-07-25T01:44:30.333Z,9.22
2022-07-25T01:45:34.366Z,8.65
2022-07-25T01:46:38.413Z,8.49
2022-07-25T01:47:41.200Z,8.11
2022-07-25T01:48:44.261Z,8.32
2022-07-25T01:49:46.917Z,8.41
2022-07-25T01:50:50.553Z,8.40
2022-07-25T01:51:59.108Z,8.44
2022-07-25T01:53:03.851Z,8.67
2022-07-25T01:54:10.388Z,8.06
2022-07-25T01:55:13.538Z,8.48
2022-07-25T01:56:20.867Z,8.24
2022-07-25T01:57:30.603Z,8.10
2022-07-25T01:58:30.313Z,8.71
2022-07-25T01:59:36.818Z,8.72
2022-07-25T02:00:44.808Z,8.39
2022-07-25T02:01:48.724Z,7.81
2022-07-25T02:02:55.152Z,8.16
2022-07-25T02:03:58.598Z,7.84
2022-07-25T02:05:09.931Z,8.29
2022-07-25T02:06:14.315Z,8.13
2022-07-25T02:07:16.882Z,8.34
2022-07-25T02:08:23.518Z,8.29
2022-07-25T02:09:27.757Z,7.86
2022-07-25T02:10:31.605Z,7.66
2022-07-25T02:11:34.968Z,8.13
2022-07-25T02:12:38.749Z,8.23
2022-07-25T02:13:42.463Z,8.12
2022-07-25T02:14:46.342Z,7.97
2022-07-25T02:15:51.144Z,7.82
2022-07-25T02:16:55.671Z,8.14
2022-07-25T02:17:59.407Z,8.14
2022-07-25T02:19:07.881Z,7.87
2022-07-25T02:20:14.847Z,8.54
2022-07-25T02:21:18.591Z,8.39
2022-07-25T02:22:22.412Z,7.85
2022-07-25T02:23:27.717Z,8.21
2022-07-25T02:24:33.530Z,7.69
2022-07-25T02:25:37.460Z,7.77
2022-07-25T02:26:41.997Z,8.14
2022-07-25T02:27:45.892Z,8.15
2022-07-25T02:28:50.963Z,8.16
2022-07-25T02:29:53.978Z,8.36
2022-07-25T02:30:59.078Z,8.01
2022-07-25T02:32:05.091Z,8.71
2022-07-25T02:33:07.912Z,8.37
2022-07-25T02:34:12.350Z,8.21
2022-07-25T02:35:15.958Z,8.15
2022-07-25T02:36:22.426Z,8.23
2022-07-25T02:37:25.895Z,8.56
2022-07-25T02:38:33.315Z,7.88
2022-07-25T02:39:38.079Z,7.89
2022-07-25T02:40:41.491Z,7.85
2022-07-25T02:41:43.942Z,8.46
2022-07-25T02:42:47.420Z,8.05
2022-07-25T02:43:51.274Z,8.17
2022-07-25T02:44:56.800Z,7.92
2022-07-25T02:46:00.972Z,8.39
2022-07-25T02:47:04.328Z,8.51
2022-07-25T02:48:10.045Z,8.39
2022-07-25T02:49:16.698Z,8.32
2022-07-25T02:50:21.773Z,8.48
2022-07-25T02:51:25.803Z,8.70
2022-07-25T02:52:36.093Z,8.67
2022-07-25T02:53:56.519Z,8.09
2022-07-25T02:54:44.344Z,8.41
2022-07-25T02:55:48.144Z,8.46
2022-07-25T02:56:53.141Z,8.15
2022-07-25T02:57:56.998Z,8.86
2022-07-25T02:59:00.851Z,9.08
2022-07-25T03:00:08.101Z,7.87
2022-07-25T03:01:11.705Z,8.10
2022-07-25T03:02:15.646Z,8.25
2022-07-25T03:03:21.869Z,8.41
2022-07-25T03:04:27.067Z,8.83
2022-07-25T03:05:31.068Z,8.18
2022-07-25T03:06:35.622Z,8.25
2022-07-25T03:07:42.032Z,8.37
2022-07-25T03:08:45.760Z,8.12
2022-07-25T03:09:48.352Z,8.00
2022-07-25T03:10:53.201Z,8.04
2022-07-25T03:11:59.757Z,8.54
2022-07-25T03:13:03.769Z,8.41
2022-07-25T03:14:09.765Z,7.63
2022-07-25T03:15:15.773Z,8.44
2022-07-25T03:16:24.384Z,8.21
2022-07-25T03:17:30.259Z,8.39
2022-07-25T03:18:35.961Z,8.20
2022-07-25T03:19:40.448Z,7.88
2022-07-25T03:20:43.331Z,8.09
2022-07-25T03:21:46.833Z,8.34
2022-07-25T03:22:50.557Z,8.04
2022-07-25T03:23:54.841Z,8.22
2022-07-25T03:25:01.565Z,8.47
2022-07-25T03:26:12.795Z,8.26
2022-07-25T03:27:17.754Z,8.17
2022-07-25T03:28:20.169Z,8.34
2022-07-25T03:29:30.269Z,8.08
2022-07-25T03:30:34.091Z,7.68
2022-07-25T03:31:37.671Z,7.84
2022-07-25T03:32:44.607Z,8.12
2022-07-25T03:33:49.894Z,8.50
2022-07-25T03:34:54.486Z,8.78
2022-07-25T03:36:00.080Z,8.33
2022-07-25T03:37:08.604Z,8.42
2022-07-25T03:38:13.074Z,8.62
2022-07-25T03:39:16.996Z,8.22
2022-07-25T03:40:22.927Z,8.49
2022-07-25T03:41:29.335Z,8.61
2022-07-25T03:42:35.435Z,8.18
2022-07-25T03:43:38.036Z,8.90
2022-07-25T03:44:40.788Z,7.98
2022-07-25T03:45:45.707Z,7.93
2022-07-25T03:46:49.678Z,8.07
2022-07-25T03:47:52.577Z,8.64
2022-07-25T03:48:56.123Z,7.92
2022-07-25T03:50:03.156Z,8.88
2022-07-25T03:51:07.523Z,8.29
2022-07-25T03:52:11.388Z,8.53
2022-07-25T03:53:14.784Z,8.46
2022-07-25T03:54:19.296Z,7.66
2022-07-25T03:55:26.957Z,8.12
2022-07-25T03:56:34.691Z,8.18
2022-07-25T03:57:39.347Z,7.70
2022-07-25T03:58:41.701Z,8.28
2022-07-25T03:59:48.135Z,8.15
2022-07-25T04:00:51.995Z,8.22
2022-07-25T04:01:55.764Z,8.58
2022-07-25T04:03:00.137Z,8.02
2022-07-25T04:04:06.081Z,8.44
2022-07-25T04:05:13.720Z,8.07
2022-07-25T04:06:18.112Z,8.48
2022-07-25T04:07:22.561Z,8.58
2022-07-25T04:08:27.161Z,8.77
2022-07-25T04:09:33.646Z,8.22
2022-07-25T04:10:37.251Z,8.33
2022-07-25T04:11:40.584Z,8.41
2022-07-25T04:12:46.401Z,8.45
2022-07-25T04:13:49.331Z,8.62
2022-07-25T04:14:52.626Z,8.28
2022-07-25T04:15:57.235Z,8.23
2022-07-25T04:17:03.339Z,8.79
2022-07-25T04:18:09.257Z,8.18
2022-07-25T04:19:14.689Z,8.89
2022-07-25T04:20:20.629Z,8.50
2022-07-25T04:21:26.500Z,8.56
2022-07-25T04:22:30.425Z,8.80
2022-07-25T04:23:36.248Z,8.73
2022-07-25T04:24:40.044Z,8.38
2022-07-25T04:25:42.389Z,8.14
2022-07-25T04:26:46.093Z,8.89
2022-07-25T04:27:51.849Z,8.70
2022-07-25T04:28:54.697Z,7.76
2022-07-25T04:30:00.749Z,8.55
2022-07-25T04:31:08.862Z,7.67
2022-07-25T04:32:11.698Z,8.09
2022-07-25T04:33:14.909Z,7.96
2022-07-25T04:34:20.315Z,8.08
2022-07-25T04:35:26.612Z,8.02
2022-07-25T04:36:32.957Z,8.77
2022-07-25T04:37:37.442Z,8.63
2022-07-25T04:38:41.342Z,8.10
2022-07-25T04:39:45.919Z,8.81
2022-07-25T04:40:50.105Z,8.38
2022-07-25T04:41:52.827Z,8.28
2022-07-25T04:42:56.231Z,8.39
2022-07-25T04:44:00.925Z,8.56
2022-07-25T04:45:04.425Z,8.05
2022-07-25T04:46:10.767Z,8.15
2022-07-25T04:47:13.881Z,8.73
2022-07-25T04:48:17.518Z,8.33
2022-07-25T04:49:21.056Z,7.54
2022-07-25T04:50:26.649Z,8.05
2022-07-25T04:51:31.060Z,8.76
2022-07-25T04:52:35.440Z,8.14
2022-07-25T04:53:39.157Z,8.11
2022-07-25T04:54:43.507Z,8.05
2022-07-25T04:55:47.387Z,8.21
2022-07-25T04:56:51.573Z,8.38
2022-07-25T04:57:54.943Z,7.98
2022-07-25T04:59:06.540Z,7.44
2022-07-25T05:00:09.028Z,7.61
2022-07-25T05:01:13.651Z,7.58
2022-07-25T05:02:18.593Z,7.57
2022-07-25T05:03:23.880Z,7.34
2022-07-25T05:04:27.783Z,7.72
2022-07-25T05:05:32.018Z,7.53
2022-07-25T05:06:35.275Z,8.03
2022-07-25T05:07:46.442Z,7.63
2022-07-25T05:08:51.225Z,7.25
2022-07-25T05:09:55.429Z,7.47
2022-07-25T05:11:00.068Z,7.54
2022-07-25T05:12:06.766Z,7.40
2022-07-25T05:13:09.893Z,7.68
2022-07-25T05:14:13.391Z,7.23
2022-07-25T05:15:17.317Z,7.19
2022-07-25T05:16:21.440Z,7.01
2022-07-25T05:17:28.663Z,6.62
2022-07-25T05:18:35.665Z,6.81
2022-07-25T05:19:39.379Z,6.68
2022-07-25T05:20:43.747Z,7.19
2022-07-25T05:21:50.382Z,6.75
2022-07-25T05:22:54.482Z,6.18
2022-07-25T05:23:58.309Z,6.29
2022-07-25T05:25:04.174Z,5.79
2022-07-25T05:27:22.740Z,5.54
2022-07-25T05:28:26.421Z,6.15
2022-07-25T05:29:29.925Z,5.93
2022-07-25T05:30:39.327Z,6.11
2022-07-25T05:31:47.329Z,5.81
2022-07-25T05:32:53.222Z,5.71
2022-07-25T05:33:57.108Z,5.58
2022-07-25T05:35:00.633Z,5.74
2022-07-25T05:36:05.540Z,5.74
2022-07-25T05:37:10.024Z,5.72
2022-07-25T05:38:12.697Z,5.97
2022-07-25T05:39:18.464Z,6.17
2022-07-25T05:40:23.045Z,6.07
2022-07-25T05:41:28.043Z,5.73
2022-07-25T05:42:32.145Z,6.16
2022-07-25T05:43:35.931Z,6.19
2022-07-25T05:44:42.326Z,5.66
2022-07-25T05:45:47.737Z,6.61
2022-07-25T05:46:54.336Z,6.36
2022-07-25T05:47:59.274Z,6.53
2022-07-25T05:49:05.938Z,6.61
2022-07-25T05:50:10.466Z,6.60
2022-07-25T05:51:14.006Z,6.70
2022-07-25T05:53:35.766Z,6.79
2022-07-25T05:54:39.036Z,6.54
2022-07-25T05:55:43.611Z,7.21
2022-07-25T05:56:52.001Z,6.82
2022-07-25T05:57:57.148Z,6.82
2022-07-25T05:58:59.747Z,6.73
2022-07-25T06:00:07.387Z,6.32
2022-07-25T06:01:16.849Z,6.59
2022-07-25T06:02:20.597Z,6.51
2022-07-25T06:03:25.200Z,6.54
2022-07-25T06:04:30.916Z,6.41
2022-07-25T06:05:35.573Z,6.49
2022-07-25T06:06:39.594Z,6.29
2022-07-25T06:07:44.859Z,6.48
2022-07-25T06:08:51.341Z,6.11
2022-07-25T06:09:57.595Z,6.02
2022-07-25T06:11:09.007Z,6.40
2022-07-25T06:12:13.898Z,5.89
2022-07-25T06:13:21.002Z,5.97
2022-07-25T06:14:35.094Z,6.39
2022-07-25T06:15:42.974Z,6.10
2022-07-25T06:16:46.526Z,5.91
2022-07-25T06:17:50.295Z,6.07
2022-07-25T06:18:54.502Z,5.70
2022-07-25T06:20:01.201Z,5.64
2022-07-25T06:21:03.784Z,6.10
2022-07-25T06:22:09.978Z,5.95
2022-07-25T06:23:18.332Z,5.46
2022-07-25T06:24:21.915Z,5.78
2022-07-25T06:25:26.910Z,5.79
2022-07-25T06:26:31.468Z,6.01
2022-07-25T06:27:36.735Z,5.87
2022-07-25T06:28:42.534Z,6.00
2022-07-25T06:29:47.124Z,5.74
2022-07-25T06:30:50.093Z,6.10
2022-07-25T06:32:09.097Z,5.79
2022-07-25T06:33:13.483Z,5.96
2022-07-25T06:34:17.098Z,5.49
2022-07-25T06:35:20.808Z,5.59
2022-07-25T06:36:32.177Z,6.12
2022-07-25T06:37:32.932Z,6.01
2022-07-25T06:38:37.414Z,6.28
2022-07-25T06:39:43.841Z,6.28
2022-07-25T06:40:49.045Z,5.91
2022-07-25T06:43:06.054Z,6.12
2022-07-25T06:44:09.274Z,6.35
2022-07-25T06:45:15.873Z,6.24
2022-07-25T06:46:23.352Z,6.19
2022-07-25T06:47:27.046Z,6.20
2022-07-25T06:48:33.918Z,5.58
2022-07-25T06:49:37.709Z,5.75
2022-07-25T06:50:45.314Z,5.84
2022-07-25T06:51:51.827Z,6.37
2022-07-25T06:52:58.600Z,6.33
2022-07-25T06:54:03.926Z,6.37
2022-07-25T06:56:26.380Z,6.58
2022-07-25T06:57:31.909Z,6.70
2022-07-25T06:58:36.612Z,6.38
2022-07-25T06:59:40.310Z,6.38
2022-07-25T07:00:46.998Z,5.85
2022-07-25T07:01:51.836Z,6.36
2022-07-25T07:02:58.914Z,6.10
2022-07-25T07:04:03.079Z,6.14
2022-07-25T07:05:07.388Z,5.97
2022-07-25T07:06:13.973Z,6.54
2022-07-25T07:07:18.910Z,6.22
2022-07-25T07:08:23.679Z,6.14
2022-07-25T07:09:26.229Z,6.41
2022-07-25T07:10:30.704Z,5.95
2022-07-25T07:11:34.908Z,6.19
2022-07-25T07:12:38.239Z,6.09
2022-07-25T07:13:43.566Z,5.70
2022-07-25T07:14:48.385Z,5.80
2022-07-25T07:15:52.849Z,5.97
2022-07-25T07:16:57.659Z,6.26
2022-07-25T07:18:00.090Z,6.22
2022-07-25T07:19:06.122Z,5.85
2022-07-25T07:20:12.439Z,5.96
2022-07-25T07:21:21.396Z,5.66
2022-07-25T07:22:25.945Z,5.80
2022-07-25T07:23:30.977Z,5.93
2022-07-25T07:24:38.806Z,5.47
2022-07-25T07:25:40.965Z,5.86
2022-07-25T07:26:47.584Z,5.75
2022-07-25T07:27:52.657Z,5.89
2022-07-25T07:28:55.606Z,6.03
2022-07-25T07:30:01.049Z,5.81
2022-07-25T07:31:20.333Z,5.38
2022-07-25T07:32:10.834Z,5.47
2022-07-25T07:33:15.773Z,5.75
2022-07-25T07:34:20.786Z,5.81
2022-07-25T07:35:27.436Z,5.19
2022-07-25T07:36:32.291Z,5.64
2022-07-25T07:37:42.929Z,5.06
2022-07-25T07:38:42.811Z,5.12
2022-07-25T07:39:47.885Z,4.98
2022-07-25T07:40:52.734Z,5.04
2022-07-25T07:41:56.534Z,5.12
2022-07-25T07:43:01.943Z,5.42
2022-07-25T07:44:05.224Z,5.09
2022-07-25T07:45:17.879Z,5.11
2022-07-25T07:46:22.462Z,5.09
2022-07-25T07:47:27.138Z,5.59
2022-07-25T07:48:31.152Z,5.53
2022-07-25T07:49:36.857Z,5.54
2022-07-25T07:50:40.996Z,4.98
2022-07-25T07:51:45.069Z,5.21
2022-07-25T07:52:51.276Z,5.46
2022-07-25T07:54:14.018Z,4.86
2022-07-25T07:55:36.668Z,5.29
2022-07-25T07:56:42.020Z,4.72
2022-07-25T07:57:46.779Z,4.53
2022-07-25T07:58:50.073Z,4.89
2022-07-25T07:59:53.371Z,4.42
2022-07-25T08:00:57.504Z,4.96
2022-07-25T08:02:01.459Z,4.72
2022-07-25T08:03:10.420Z,4.84
2022-07-25T08:04:13.409Z,4.56
2022-07-25T08:06:44.160Z,4.73
2022-07-25T08:07:47.623Z,4.12
2022-07-25T08:08:51.482Z,4.23
2022-07-25T08:09:55.826Z,4.49
2022-07-25T08:11:00.491Z,4.40
2022-07-25T08:12:08.574Z,4.35
2022-07-25T08:13:24.937Z,4.58
2022-07-25T08:14:28.787Z,4.34
2022-07-25T08:15:39.202Z,4.71
2022-07-25T08:17:47.594Z,4.43
2022-07-25T08:18:51.127Z,4.00
2022-07-25T08:20:09.414Z,4.28
2022-07-25T08:21:07.068Z,4.17
2022-07-25T08:22:11.151Z,4.20
2022-07-25T08:23:14.713Z,3.96
2022-07-25T08:24:20.260Z,4.21
2022-07-25T08:25:23.802Z,4.46
2022-07-25T08:26:33.771Z,4.04
2022-07-25T08:27:39.541Z,3.93
2022-07-25T08:28:42.868Z,4.24
2022-07-25T08:29:47.697Z,3.92
2022-07-25T08:30:50.592Z,3.88
2022-07-25T08:31:53.734Z,4.19
2022-07-25T08:33:09.286Z,4.08
2022-07-25T08:34:13.374Z,3.86
2022-07-25T08:35:16.415Z,4.06
2022-07-25T08:36:21.552Z,4.11
2022-07-25T08:37:26.013Z,3.88
2022-07-25T08:38:30.254Z,3.82
2022-07-25T08:39:33.965Z,3.84
2022-07-25T08:40:38.116Z,3.62
2022-07-25T08:41:43.534Z,3.66
2022-07-25T08:42:50.049Z,3.84
2022-07-25T08:43:57.911Z,3.67
2022-07-25T08:45:05.384Z,3.70
2022-07-25T08:46:12.454Z,3.76
2022-07-25T08:47:16.572Z,3.47
2022-07-25T08:48:23.602Z,3.35
2022-07-25T08:49:30.330Z,3.65
2022-07-25T08:50:36.791Z,3.64
2022-07-25T08:51:41.557Z,3.35
2022-07-25T08:52:47.005Z,3.19
2022-07-25T08:53:54.577Z,3.50
2022-07-25T08:55:00.021Z,3.55
2022-07-25T08:56:11.535Z,3.51
2022-07-25T08:57:13.707Z,3.53
2022-07-25T08:58:18.872Z,3.24
2022-07-25T08:59:24.999Z,3.50
2022-07-25T09:00:30.938Z,3.34
2022-07-25T09:01:36.437Z,3.29
2022-07-25T09:02:40.275Z,3.46
2022-07-25T09:03:47.140Z,3.12
2022-07-25T09:04:49.547Z,3.03
2022-07-25T09:07:04.960Z,3.08
2022-07-25T09:08:16.277Z,3.04
2022-07-25T09:09:19.758Z,3.08
2022-07-25T09:10:27.689Z,3.21
2022-07-25T09:11:39.748Z,3.02
2022-07-25T09:13:06.125Z,3.13
2022-07-25T09:14:15.200Z,3.27
2022-07-25T09:15:30.036Z,3.36
2022-07-25T09:16:41.319Z,3.07
2022-07-25T09:17:50.328Z,2.98
2022-07-25T09:18:54.093Z,2.99
2022-07-25T09:19:59.155Z,3.56
2022-07-25T09:21:04.942Z,2.93
2022-07-25T09:22:10.589Z,3.05
2022-07-25T09:23:37.728Z,3.14
2022-07-25T09:24:44.973Z,2.73
2022-07-25T09:25:50.005Z,2.81
2022-07-25T09:26:55.799Z,2.93
2022-07-25T09:28:14.240Z,2.94
2022-07-25T09:30:42.404Z,3.26
2022-07-25T09:31:46.843Z,2.92
2022-07-25T09:33:01.498Z,3.42
2022-07-25T09:34:10.268Z,2.98
2022-07-25T09:35:14.552Z,2.85
2022-07-25T09:36:19.516Z,3.20
2022-07-25T09:37:25.733Z,2.96
2022-07-25T09:38:29.551Z,2.83
2022-07-25T09:39:45.956Z,2.92
2022-07-25T09:42:23.978Z,3.01
2022-07-25T09:43:40.089Z,2.78
2022-07-25T09:44:44.315Z,2.92
2022-07-25T09:45:53.719Z,2.89
2022-07-25T09:47:01.403Z,2.92
2022-07-25T09:48:09.241Z,3.11
2022-07-25T09:49:15.185Z,3.03
2022-07-25T09:50:28.441Z,2.87
2022-07-25T09:51:34.019Z,3.11
2022-07-25T09:52:39.179Z,3.13
2022-07-25T09:53:50.747Z,3.29
2022-07-25T09:54:56.983Z,2.79
2022-07-25T09:55:59.997Z,2.89
2022-07-25T09:57:03.470Z,2.81
2022-07-25T09:58:07.754Z,2.80
2022-07-25T09:59:14.310Z,2.72
2022-07-25T10:00:25.039Z,2.92
2022-07-25T10:01:35.092Z,3.23
2022-07-25T10:02:59.030Z,2.96
2022-07-25T10:04:13.775Z,2.43
2022-07-25T10:05:22.032Z,2.73
2022-07-25T10:06:46.261Z,2.73
2022-07-25T10:07:59.338Z,3.04
2022-07-25T10:09:03.087Z,2.92
2022-07-25T10:10:08.331Z,3.08
2022-07-25T10:11:32.652Z,3.21
2022-07-25T10:12:39.107Z,3.07
2022-07-25T10:13:41.800Z,3.29
2022-07-25T10:15:06.146Z,3.25
2022-07-25T10:16:20.997Z,3.08
2022-07-25T10:17:24.602Z,2.86
2022-07-25T10:18:32.400Z,2.78
2022-07-25T10:19:50.751Z,2.75
2022-07-25T10:20:56.541Z,3.14
2022-07-25T10:22:00.466Z,2.77
2022-07-25T10:23:09.141Z,3.01
2022-07-25T10:24:13.883Z,2.75
2022-07-25T10:25:20.398Z,3.12
2022-07-25T10:26:27.262Z,2.54
2022-07-25T10:27:35.289Z,2.86
2022-07-25T10:28:45.675Z,2.92
2022-07-25T10:29:55.180Z,3.03
2022-07-25T10:30:59.414Z,2.85
2022-07-25T10:32:10.524Z,3.09
2022-07-25T10:33:22.046Z,3.20
2022-07-25T10:34:33.837Z,3.44
2022-07-25T10:35:37.599Z,3.04
2022-07-25T10:36:51.161Z,3.15
2022-07-25T10:37:57.252Z,2.84
2022-07-25T10:39:03.725Z,3.31
2022-07-25T10:40:09.438Z,2.87
2022-07-25T10:41:15.936Z,2.69
2022-07-25T10:42:23.556Z,2.67
2022-07-25T10:43:28.433Z,2.76
2022-07-25T10:44:47.604Z,3.10
2022-07-25T10:45:59.591Z,2.88
2022-07-25T10:47:06.850Z,2.78
2022-07-25T10:48:16.861Z,2.74
2022-07-25T10:49:31.774Z,2.98
2022-07-25T10:50:54.800Z,2.76
2022-07-25T10:51:42.284Z,2.94
2022-07-25T10:52:53.253Z,2.81
2022-07-25T10:53:58.153Z,2.76
2022-07-25T10:55:02.283Z,2.55
2022-07-25T10:56:19.354Z,2.71
2022-07-25T10:57:26.196Z,2.87
2022-07-25T10:58:29.720Z,2.38
2022-07-25T10:59:41.805Z,2.75
2022-07-25T11:00:46.511Z,2.62
2022-07-25T11:01:52.683Z,2.61
2022-07-25T11:02:58.595Z,2.38
2022-07-25T11:04:05.409Z,2.39
2022-07-25T11:05:13.458Z,2.68
2022-07-25T11:06:36.027Z,2.68
2022-07-25T11:07:58.602Z,2.71
2022-07-25T11:08:48.922Z,2.83
2022-07-25T11:10:04.022Z,2.64
2022-07-25T11:11:11.975Z,2.54
2022-07-25T11:12:17.443Z,2.47
2022-07-25T11:13:21.126Z,2.45
2022-07-25T11:14:27.374Z,2.35
2022-07-25T11:15:30.336Z,2.68
2022-07-25T11:16:33.959Z,2.32
2022-07-25T11:17:36.940Z,2.69
2022-07-25T11:18:41.107Z,2.78
2022-07-25T11:19:56.621Z,2.55
2022-07-25T11:21:06.275Z,2.77
2022-07-25T11:22:09.336Z,2.52
2022-07-25T11:23:14.237Z,2.52
2022-07-25T11:25:33.090Z,2.16
2022-07-25T11:26:53.063Z,2.72
2022-07-25T11:27:57.607Z,2.63
2022-07-25T11:29:00.031Z,2.35
2022-07-25T11:30:15.210Z,2.46
2022-07-25T11:31:19.576Z,2.37
2022-07-25T11:32:27.146Z,2.79
2022-07-25T11:33:30.844Z,2.19
2022-07-25T11:34:38.994Z,2.48
2022-07-25T11:35:43.878Z,2.41
2022-07-25T11:36:47.480Z,2.22
2022-07-25T11:37:52.427Z,2.45
2022-07-25T11:38:59.283Z,2.58
2022-07-25T11:41:16.436Z,2.39
2022-07-25T11:42:21.077Z,2.39
2022-07-25T11:43:26.403Z,2.48
2022-07-25T11:44:44.269Z,2.41
2022-07-25T11:45:51.103Z,2.54
2022-07-25T11:46:54.758Z,2.78
2022-07-25T11:48:15.280Z,2.81
2022-07-25T11:50:35.195Z,2.64
2022-07-25T11:51:40.656Z,2.53
2022-07-25T11:52:47.656Z,2.69
2022-07-25T11:53:51.114Z,2.82
2022-07-25T11:55:23.261Z,2.60
2022-07-25T11:56:42.585Z,2.69
2022-07-25T11:57:39.573Z,2.52
2022-07-25T11:58:45.957Z,2.56
2022-07-25T11:59:49.761Z,2.64
2022-07-25T12:00:53.573Z,2.56
2022-07-25T12:02:00.071Z,2.65
2022-07-25T12:04:22.787Z,2.64
2022-07-25T12:05:29.858Z,2.54
2022-07-25T12:06:33.714Z,2.55
2022-07-25T12:07:44.961Z,2.66
2022-07-25T12:08:49.763Z,2.48
2022-07-25T12:09:58.280Z,2.63
2022-07-25T12:11:03.448Z,2.63
2022-07-25T12:12:14.823Z,2.65
2022-07-25T12:13:26.630Z,2.80
2022-07-25T12:14:35.215Z,2.68
2022-07-25T12:15:44.855Z,2.67
2022-07-25T12:16:48.851Z,2.80
2022-07-25T12:17:56.667Z,2.67
2022-07-25T12:19:00.398Z,2.47
2022-07-25T12:20:11.029Z,2.54
2022-07-25T12:21:16.293Z,2.38
2022-07-25T12:22:22.927Z,2.77
2022-07-25T12:23:27.352Z,2.59
2022-07-25T12:24:31.570Z,2.72
2022-07-25T12:25:38.101Z,2.38
2022-07-25T12:26:47.301Z,2.60
2022-07-25T12:27:51.332Z,2.33
2022-07-25T12:28:55.645Z,2.40
2022-07-25T12:30:02.084Z,2.42
2022-07-25T12:31:11.490Z,2.43
2022-07-25T12:32:21.477Z,2.64
2022-07-25T12:33:24.293Z,2.71
2022-07-25T12:34:30.925Z,2.52
2022-07-25T12:35:35.028Z,2.52
2022-07-25T12:36:40.188Z,2.46
2022-07-25T12:38:57.829Z,2.53
2022-07-25T12:40:01.479Z,2.46
2022-07-25T12:41:04.356Z,2.58
2022-07-25T12:42:11.653Z,2.66
2022-07-25T12:43:14.666Z,2.54
2022-07-25T12:44:20.829Z,2.60
2022-07-25T12:45:23.767Z,2.91
2022-07-25T12:46:30.597Z,2.56
2022-07-25T12:47:37.369Z,2.86
2022-07-25T12:48:41.132Z,2.66
2022-07-25T12:49:46.449Z,2.63
2022-07-25T12:50:50.269Z,2.67
2022-07-25T12:51:58.013Z,3.00
2022-07-25T12:52:59.239Z,2.46
2022-07-25T12:54:02.646Z,2.64
2022-07-25T12:55:11.223Z,2.55
2022-07-25T12:56:16.547Z,2.46
2022-07-25T12:57:20.678Z,2.49
2022-07-25T12:58:27.297Z,2.71
2022-07-25T12:59:30.732Z,2.27
2022-07-25T13:00:35.895Z,2.67
2022-07-25T13:01:39.383Z,2.60
2022-07-25T13:02:44.676Z,2.44
2022-07-25T13:03:48.704Z,2.56
2022-07-25T13:04:52.591Z,2.51
2022-07-25T13:05:58.880Z,2.54
2022-07-25T13:07:02.735Z,2.54
2022-07-25T13:08:06.968Z,2.76
2022-07-25T13:09:10.497Z,2.54
2022-07-25T13:10:15.749Z,2.78
2022-07-25T13:11:18.360Z,2.51
2022-07-25T13:12:24.083Z,2.73
2022-07-25T13:13:29.606Z,2.52
2022-07-25T13:14:33.219Z,2.62
2022-07-25T13:15:36.616Z,2.49
2022-07-25T13:16:41.516Z,2.83
2022-07-25T13:17:44.924Z,2.61
2022-07-25T13:18:49.805Z,2.58
2022-07-25T13:19:54.725Z,2.45
2022-07-25T13:21:01.437Z,2.40
2022-07-25T13:22:08.109Z,2.48
2022-07-25T13:23:12.014Z,2.45
2022-07-25T13:24:15.562Z,2.63
2022-07-25T13:25:21.951Z,2.89
2022-07-25T13:26:27.235Z,2.57
2022-07-25T13:27:30.927Z,2.75
2022-07-25T13:28:34.311Z,2.40
2022-07-25T13:29:37.984Z,2.32
2022-07-25T13:30:44.888Z,2.72
2022-07-25T13:31:53.168Z,2.59
2022-07-25T13:32:57.253Z,2.57
2022-07-25T13:33:59.808Z,2.55
2022-07-25T13:35:04.260Z,2.51
2022-07-25T13:36:09.569Z,2.38
2022-07-25T13:37:14.499Z,2.35
2022-07-25T13:38:21.028Z,2.41
2022-07-25T13:39:27.048Z,2.38
2022-07-25T13:40:32.747Z,2.52
2022-07-25T13:41:42.588Z,2.49
2022-07-25T13:42:46.388Z,2.61
2022-07-25T13:43:50.261Z,2.38
2022-07-25T13:44:55.491Z,2.33
2022-07-25T13:45:59.993Z,2.47
2022-07-25T13:47:03.386Z,2.47
2022-07-25T13:48:28.302Z,2.58
2022-07-25T13:49:16.068Z,2.58
2022-07-25T13:50:20.481Z,2.48
2022-07-25T13:51:23.606Z,2.51
2022-07-25T13:52:28.121Z,2.30
2022-07-25T13:53:30.958Z,2.60
2022-07-25T13:54:33.983Z,2.36
2022-07-25T13:55:39.674Z,2.22
2022-07-25T13:56:44.803Z,2.27
2022-07-25T13:57:51.907Z,2.54
2022-07-25T13:58:55.522Z,2.07
2022-07-25T14:00:01.297Z,2.40
2022-07-25T14:01:06.161Z,2.30
2022-07-25T14:02:13.307Z,2.36
2022-07-25T14:03:17.296Z,2.39
2022-07-25T14:04:20.913Z,2.20
2022-07-25T14:05:25.322Z,1.98
2022-07-25T14:06:30.182Z,2.13
2022-07-25T14:07:38.222Z,1.98
2022-07-25T14:08:42.728Z,2.25
2022-07-25T14:09:46.068Z,2.04
2022-07-25T14:12:02.153Z,1.77
2022-07-25T14:13:10.883Z,1.69
2022-07-25T14:14:14.432Z,1.68
2022-07-25T14:15:19.705Z,1.84
2022-07-25T14:16:26.794Z,1.84
2022-07-25T14:17:31.440Z,1.65
2022-07-25T14:18:36.239Z,1.78
2022-07-25T14:19:43.699Z,1.91
2022-07-25T14:20:47.419Z,2.21
2022-07-25T14:21:50.940Z,1.91
2022-07-25T14:23:02.300Z,1.84
2022-07-25T14:24:06.734Z,1.89
2022-07-25T14:25:13.118Z,1.76
2022-07-25T14:26:16.565Z,2.02
2022-07-25T14:27:20.958Z,1.89
2022-07-25T14:28:27.385Z,2.01
2022-07-25T14:29:32.050Z,1.76
2022-07-25T14:30:35.791Z,1.82
2022-07-25T14:31:42.194Z,1.89
2022-07-25T14:32:47.108Z,2.42
2022-07-25T14:33:50.481Z,2.01
2022-07-25T14:34:56.766Z,2.06
2022-07-25T14:36:00.207Z,1.88
2022-07-25T14:37:03.926Z,1.59
2022-07-25T14:38:07.703Z,1.59
2022-07-25T14:39:11.552Z,1.80
2022-07-25T14:40:19.688Z,1.88
2022-07-25T14:41:24.543Z,1.66
2022-07-25T14:42:30.495Z,1.71
2022-07-25T14:43:34.209Z,1.76
2022-07-25T14:44:45.582Z,1.45
2022-07-25T14:45:49.168Z,1.78
2022-07-25T14:46:52.823Z,1.49
2022-07-25T14:47:59.338Z,1.74
2022-07-25T14:49:02.968Z,1.53
2022-07-25T14:50:08.920Z,1.54
2022-07-25T14:51:12.536Z,1.34
2022-07-25T14:52:17.589Z,1.64
2022-07-25T14:53:21.040Z,1.82
2022-07-25T14:54:26.909Z,1.70
2022-07-25T14:55:30.939Z,1.76
2022-07-25T14:56:35.175Z,1.76
2022-07-25T14:57:37.692Z,1.56